sensor_id;sensor_type;location;lat;lon;timestamp;pressure;altitude;pressure_sealevel;temperature;humidity
5691;BME280;2870;42.680;23.364;2022-08-19T00:00:30;94888.13;;;23.14;63.80
5691;BME280;2870;42.680;23.364;2022-08-19T00:02:57;94893.38;;;23.20;63.01
5691;BME280;2870;42.680;23.364;2022-08-19T00:05:24;94898.69;;;23.10;62.56
5691;BME280;2870;42.680;23.364;2022-08-19T00:07:51;94900.72;;;23.07;63.28
5691;BME280;2870;42.680;23.364;2022-08-19T00:10:20;94902.34;;;23.12;63.79
5691;BME280;2870;42.680;23.364;2022-08-19T00:12:47;94903.69;;;23.09;64.07
5691;BME280;2870;42.680;23.364;2022-08-19T00:15:16;94899.06;;;23.02;64.82
5691;BME280;2870;42.680;23.364;2022-08-19T00:17:44;94909.03;;;23.01;63.95
5691;BME280;2870;42.680;23.364;2022-08-19T00:20:14;94910.44;;;23.00;64.78
5691;BME280;2870;42.680;23.364;2022-08-19T00:22:44;94908.69;;;22.93;64.87
5691;BME280;2870;42.680;23.364;2022-08-19T00:25:11;94920.84;;;23.09;64.51
5691;BME280;2870;42.680;23.364;2022-08-19T00:27:40;94904.41;;;23.10;64.36
5691;BME280;2870;42.680;23.364;2022-08-19T00:30:08;94914.94;;;23.05;64.66
5691;BME280;2870;42.680;23.364;2022-08-19T00:32:36;94917.28;;;22.93;64.89
5691;BME280;2870;42.680;23.364;2022-08-19T00:35:03;94917.78;;;23.05;64.49
5691;BME280;2870;42.680;23.364;2022-08-19T00:37:30;94911.00;;;23.14;63.81
5691;BME280;2870;42.680;23.364;2022-08-19T00:39:58;94910.63;;;22.88;65.01
5691;BME280;2870;42.680;23.364;2022-08-19T00:42:25;94912.78;;;22.88;66.00
5691;BME280;2870;42.680;23.364;2022-08-19T00:44:55;94900.38;;;22.99;65.60
5691;BME280;2870;42.680;23.364;2022-08-19T00:47:22;94912.63;;;22.86;65.33
5691;BME280;2870;42.680;23.364;2022-08-19T00:49:55;94915.16;;;22.78;64.66
5691;BME280;2870;42.680;23.364;2022-08-19T00:52:24;94902.91;;;22.75;64.35
5691;BME280;2870;42.680;23.364;2022-08-19T00:54:55;94907.63;;;22.53;65.17
5691;BME280;2870;42.680;23.364;2022-08-19T00:57:26;94913.81;;;22.47;67.03
5691;BME280;2870;42.680;23.364;2022-08-19T00:59:56;94908.00;;;22.45;64.51
5691;BME280;2870;42.680;23.364;2022-08-19T01:02:25;94906.72;;;22.32;64.37
5691;BME280;2870;42.680;23.364;2022-08-19T01:04:53;94915.94;;;22.46;64.27
5691;BME280;2870;42.680;23.364;2022-08-19T01:07:20;94908.47;;;22.39;63.34
5691;BME280;2870;42.680;23.364;2022-08-19T01:09:47;94911.69;;;22.32;63.88
5691;BME280;2870;42.680;23.364;2022-08-19T01:12:14;94916.56;;;22.29;63.82
5691;BME280;2870;42.680;23.364;2022-08-19T01:14:41;94904.13;;;22.22;63.75
5691;BME280;2870;42.680;23.364;2022-08-19T01:17:10;94912.63;;;22.20;64.45
5691;BME280;2870;42.680;23.364;2022-08-19T01:19:39;94913.09;;;22.31;65.06
5691;BME280;2870;42.680;23.364;2022-08-19T01:22:12;94909.13;;;22.38;64.69
5691;BME280;2870;42.680;23.364;2022-08-19T01:24:42;94910.69;;;22.25;65.70
5691;BME280;2870;42.680;23.364;2022-08-19T01:27:09;94915.00;;;22.26;65.04
5691;BME280;2870;42.680;23.364;2022-08-19T01:29:38;94908.44;;;22.08;65.84
5691;BME280;2870;42.680;23.364;2022-08-19T01:32:06;94898.09;;;22.01;65.97
5691;BME280;2870;42.680;23.364;2022-08-19T01:34:33;94909.06;;;21.90;65.99
5691;BME280;2870;42.680;23.364;2022-08-19T01:37:05;94908.34;;;21.90;65.81
5691;BME280;2870;42.680;23.364;2022-08-19T01:39:33;94910.16;;;21.99;67.04
5691;BME280;2870;42.680;23.364;2022-08-19T01:42:01;94902.56;;;21.58;67.20
5691;BME280;2870;42.680;23.364;2022-08-19T01:44:29;94903.53;;;21.79;66.08
5691;BME280;2870;42.680;23.364;2022-08-19T01:46:56;94901.88;;;22.05;65.91
5691;BME280;2870;42.680;23.364;2022-08-19T01:49:24;94909.97;;;22.25;65.80
5691;BME280;2870;42.680;23.364;2022-08-19T01:51:52;94907.06;;;22.09;65.77
5691;BME280;2870;42.680;23.364;2022-08-19T01:54:21;94905.53;;;21.76;66.78
5691;BME280;2870;42.680;23.364;2022-08-19T01:56:49;94907.22;;;21.81;67.15
5691;BME280;2870;42.680;23.364;2022-08-19T01:59:20;94905.00;;;21.80;67.74
5691;BME280;2870;42.680;23.364;2022-08-19T02:01:49;94909.81;;;21.91;68.04
5691;BME280;2870;42.680;23.364;2022-08-19T02:04:16;94903.16;;;21.86;68.15
5691;BME280;2870;42.680;23.364;2022-08-19T02:06:43;94911.00;;;21.86;68.02
5691;BME280;2870;42.680;23.364;2022-08-19T02:09:10;94906.66;;;21.85;68.57
5691;BME280;2870;42.680;23.364;2022-08-19T02:11:37;94914.19;;;21.78;68.26
5691;BME280;2870;42.680;23.364;2022-08-19T02:14:06;94914.94;;;21.79;68.57
5691;BME280;2870;42.680;23.364;2022-08-19T02:16:35;94913.13;;;21.85;68.34
5691;BME280;2870;42.680;23.364;2022-08-19T02:19:03;94897.63;;;21.75;67.58
5691;BME280;2870;42.680;23.364;2022-08-19T02:21:30;94912.72;;;21.77;68.44
5691;BME280;2870;42.680;23.364;2022-08-19T02:23:57;94910.06;;;21.81;68.42
5691;BME280;2870;42.680;23.364;2022-08-19T02:26:24;94907.00;;;21.77;68.11
5691;BME280;2870;42.680;23.364;2022-08-19T02:28:53;94909.78;;;21.75;68.00
5691;BME280;2870;42.680;23.364;2022-08-19T02:31:22;94917.31;;;21.68;68.23
5691;BME280;2870;42.680;23.364;2022-08-19T02:33:51;94912.50;;;21.57;69.71
5691;BME280;2870;42.680;23.364;2022-08-19T02:36:18;94923.84;;;21.71;68.16
5691;BME280;2870;42.680;23.364;2022-08-19T02:38:45;94912.38;;;21.85;66.96
5691;BME280;2870;42.680;23.364;2022-08-19T02:41:17;94916.00;;;22.01;66.21
5691;BME280;2870;42.680;23.364;2022-08-19T02:43:45;94919.19;;;21.93;65.88
5691;BME280;2870;42.680;23.364;2022-08-19T02:46:17;94918.13;;;21.71;67.42
5691;BME280;2870;42.680;23.364;2022-08-19T02:48:47;94919.34;;;21.23;68.72
5691;BME280;2870;42.680;23.364;2022-08-19T02:51:20;94929.59;;;21.28;69.04
5691;BME280;2870;42.680;23.364;2022-08-19T02:53:48;94920.31;;;21.13;70.15
5691;BME280;2870;42.680;23.364;2022-08-19T02:56:15;94931.06;;;21.29;68.76
5691;BME280;2870;42.680;23.364;2022-08-19T02:58:42;94941.44;;;21.08;68.96
5691;BME280;2870;42.680;23.364;2022-08-19T03:01:10;94928.91;;;21.00;69.30
5691;BME280;2870;42.680;23.364;2022-08-19T03:03:38;94915.69;;;20.92;69.75
5691;BME280;2870;42.680;23.364;2022-08-19T03:06:07;94926.34;;;20.92;70.41
5691;BME280;2870;42.680;23.364;2022-08-19T03:08:37;94920.13;;;20.96;70.90
5691;BME280;2870;42.680;23.364;2022-08-19T03:11:04;94923.09;;;20.84;71.04
5691;BME280;2870;42.680;23.364;2022-08-19T03:13:31;94919.94;;;20.78;71.13
5691;BME280;2870;42.680;23.364;2022-08-19T03:15:58;94918.44;;;20.90;71.67
5691;BME280;2870;42.680;23.364;2022-08-19T03:18:25;94917.94;;;20.80;71.05
5691;BME280;2870;42.680;23.364;2022-08-19T03:20:52;94906.84;;;20.73;71.58
5691;BME280;2870;42.680;23.364;2022-08-19T03:23:20;94907.69;;;20.75;72.33
5691;BME280;2870;42.680;23.364;2022-08-19T03:25:50;94907.06;;;20.77;73.17
5691;BME280;2870;42.680;23.364;2022-08-19T03:28:18;94907.16;;;20.79;72.20
5691;BME280;2870;42.680;23.364;2022-08-19T03:30:56;94918.34;;;20.75;73.94
5691;BME280;2870;42.680;23.364;2022-08-19T03:33:24;94921.31;;;20.77;73.55
5691;BME280;2870;42.680;23.364;2022-08-19T03:36:08;94913.94;;;20.72;73.28
5691;BME280;2870;42.680;23.364;2022-08-19T03:38:37;94920.88;;;20.96;73.45
5691;BME280;2870;42.680;23.364;2022-08-19T03:41:08;94923.50;;;20.92;73.88
5691;BME280;2870;42.680;23.364;2022-08-19T03:43:36;94926.22;;;21.04;72.17
5691;BME280;2870;42.680;23.364;2022-08-19T03:46:05;94935.53;;;21.04;72.50
5691;BME280;2870;42.680;23.364;2022-08-19T03:48:33;94931.22;;;20.89;72.35
5691;BME280;2870;42.680;23.364;2022-08-19T03:51:02;94935.88;;;20.83;73.17
5691;BME280;2870;42.680;23.364;2022-08-19T03:53:30;94939.91;;;20.78;74.62
5691;BME280;2870;42.680;23.364;2022-08-19T03:55:57;94942.00;;;20.77;74.25
5691;BME280;2870;42.680;23.364;2022-08-19T03:58:27;94940.63;;;20.78;73.83
5691;BME280;2870;42.680;23.364;2022-08-19T04:00:55;94946.56;;;20.82;73.21
5691;BME280;2870;42.680;23.364;2022-08-19T04:03:22;94952.16;;;20.67;73.07
5691;BME280;2870;42.680;23.364;2022-08-19T04:05:49;94956.78;;;20.74;74.32
5691;BME280;2870;42.680;23.364;2022-08-19T04:08:16;94954.25;;;20.80;72.67
5691;BME280;2870;42.680;23.364;2022-08-19T04:10:46;94957.53;;;20.74;72.86
5691;BME280;2870;42.680;23.364;2022-08-19T04:13:13;94969.56;;;20.73;73.71
5691;BME280;2870;42.680;23.364;2022-08-19T04:15:43;94957.22;;;20.82;72.75
5691;BME280;2870;42.680;23.364;2022-08-19T04:18:12;94958.56;;;20.81;73.65
5691;BME280;2870;42.680;23.364;2022-08-19T04:20:40;94964.59;;;20.87;73.24
5691;BME280;2870;42.680;23.364;2022-08-19T04:23:07;94959.75;;;20.89;74.10
5691;BME280;2870;42.680;23.364;2022-08-19T04:25:39;94963.63;;;20.96;73.90
5691;BME280;2870;42.680;23.364;2022-08-19T04:28:07;94963.72;;;20.98;73.74
5691;BME280;2870;42.680;23.364;2022-08-19T04:30:40;94969.66;;;21.02;71.38
5691;BME280;2870;42.680;23.364;2022-08-19T04:33:13;94961.63;;;20.85;70.95
5691;BME280;2870;42.680;23.364;2022-08-19T04:35:44;94965.63;;;21.07;70.81
5691;BME280;2870;42.680;23.364;2022-08-19T04:38:12;94967.72;;;21.21;72.39
5691;BME280;2870;42.680;23.364;2022-08-19T04:40:40;94978.59;;;21.38;71.34
5691;BME280;2870;42.680;23.364;2022-08-19T04:43:25;94966.88;;;21.32;71.77
5691;BME280;2870;42.680;23.364;2022-08-19T04:45:52;94960.50;;;21.47;70.90
5691;BME280;2870;42.680;23.364;2022-08-19T04:48:20;94969.22;;;21.65;70.62
5691;BME280;2870;42.680;23.364;2022-08-19T04:50:51;94965.13;;;21.54;70.70
5691;BME280;2870;42.680;23.364;2022-08-19T04:53:23;94958.47;;;21.63;69.59
5691;BME280;2870;42.680;23.364;2022-08-19T04:55:50;94970.03;;;21.52;69.55
5691;BME280;2870;42.680;23.364;2022-08-19T04:58:17;94966.44;;;21.51;70.41
5691;BME280;2870;42.680;23.364;2022-08-19T05:00:44;94975.59;;;21.63;70.33
5691;BME280;2870;42.680;23.364;2022-08-19T05:03:11;94974.94;;;21.94;67.85
5691;BME280;2870;42.680;23.364;2022-08-19T05:05:40;94980.63;;;21.94;68.46
5691;BME280;2870;42.680;23.364;2022-08-19T05:08:07;94976.66;;;21.86;69.91
5691;BME280;2870;42.680;23.364;2022-08-19T05:10:35;94980.09;;;21.98;68.08
5691;BME280;2870;42.680;23.364;2022-08-19T05:13:02;94982.75;;;21.94;69.20
5691;BME280;2870;42.680;23.364;2022-08-19T05:15:29;94977.09;;;22.10;69.58
5691;BME280;2870;42.680;23.364;2022-08-19T05:17:56;94973.66;;;22.43;67.05
5691;BME280;2870;42.680;23.364;2022-08-19T05:20:42;94969.22;;;22.56;65.46
5691;BME280;2870;42.680;23.364;2022-08-19T05:23:26;94974.19;;;22.39;66.50
5691;BME280;2870;42.680;23.364;2022-08-19T05:25:53;94975.31;;;22.48;65.55
5691;BME280;2870;42.680;23.364;2022-08-19T05:28:20;94971.81;;;22.49;65.75
5691;BME280;2870;42.680;23.364;2022-08-19T05:30:47;94986.56;;;22.44;65.18
5691;BME280;2870;42.680;23.364;2022-08-19T05:33:16;94973.28;;;22.51;65.85
5691;BME280;2870;42.680;23.364;2022-08-19T05:35:44;94983.44;;;22.54;66.85
5691;BME280;2870;42.680;23.364;2022-08-19T05:38:11;94969.13;;;22.54;65.62
5691;BME280;2870;42.680;23.364;2022-08-19T05:40:39;94985.63;;;22.87;66.07
5691;BME280;2870;42.680;23.364;2022-08-19T05:43:08;94996.16;;;22.82;63.75
5691;BME280;2870;42.680;23.364;2022-08-19T05:45:38;94988.75;;;22.61;64.07
5691;BME280;2870;42.680;23.364;2022-08-19T05:48:05;94977.41;;;22.63;64.61
5691;BME280;2870;42.680;23.364;2022-08-19T05:50:32;94987.66;;;22.68;63.88
5691;BME280;2870;42.680;23.364;2022-08-19T05:53:00;94978.72;;;22.60;63.42
5691;BME280;2870;42.680;23.364;2022-08-19T05:55:27;94982.69;;;23.00;62.81
5691;BME280;2870;42.680;23.364;2022-08-19T05:57:54;94973.38;;;23.34;64.08
5691;BME280;2870;42.680;23.364;2022-08-19T06:00:21;94973.72;;;23.60;61.63
5691;BME280;2870;42.680;23.364;2022-08-19T06:02:48;94984.19;;;23.53;62.95
5691;BME280;2870;42.680;23.364;2022-08-19T06:05:16;94981.56;;;23.41;62.11
5691;BME280;2870;42.680;23.364;2022-08-19T06:07:43;94978.47;;;23.53;62.20
5691;BME280;2870;42.680;23.364;2022-08-19T06:10:11;94986.88;;;23.83;60.69
5691;BME280;2870;42.680;23.364;2022-08-19T06:12:38;94989.06;;;24.02;62.00
5691;BME280;2870;42.680;23.364;2022-08-19T06:15:08;94993.25;;;24.17;60.12
5691;BME280;2870;42.680;23.364;2022-08-19T06:17:35;94984.50;;;23.95;60.38
5691;BME280;2870;42.680;23.364;2022-08-19T06:20:03;94993.66;;;23.91;60.61
5691;BME280;2870;42.680;23.364;2022-08-19T06:22:31;94992.81;;;24.42;58.99
5691;BME280;2870;42.680;23.364;2022-08-19T06:25:03;94996.59;;;24.47;58.47
5691;BME280;2870;42.680;23.364;2022-08-19T06:27:32;94983.81;;;24.32;58.46
5691;BME280;2870;42.680;23.364;2022-08-19T06:29:59;94998.06;;;24.48;60.56
5691;BME280;2870;42.680;23.364;2022-08-19T06:32:26;94988.91;;;24.71;61.27
5691;BME280;2870;42.680;23.364;2022-08-19T06:34:53;94992.97;;;25.04;58.07
5691;BME280;2870;42.680;23.364;2022-08-19T06:37:20;94992.91;;;25.02;56.33
5691;BME280;2870;42.680;23.364;2022-08-19T06:39:48;94994.97;;;25.19;55.15
5691;BME280;2870;42.680;23.364;2022-08-19T06:42:17;94991.13;;;25.32;55.50
5691;BME280;2870;42.680;23.364;2022-08-19T06:44:47;94993.69;;;25.44;54.87
5691;BME280;2870;42.680;23.364;2022-08-19T06:47:17;94997.84;;;25.61;54.47
5691;BME280;2870;42.680;23.364;2022-08-19T06:49:44;94991.56;;;25.45;54.32
5691;BME280;2870;42.680;23.364;2022-08-19T06:52:11;94990.28;;;25.50;56.17
5691;BME280;2870;42.680;23.364;2022-08-19T06:54:39;94990.75;;;25.42;54.62
5691;BME280;2870;42.680;23.364;2022-08-19T06:57:07;94994.81;;;25.77;52.28
5691;BME280;2870;42.680;23.364;2022-08-19T06:59:35;95003.31;;;25.95;53.31
5691;BME280;2870;42.680;23.364;2022-08-19T07:02:05;94992.69;;;25.77;53.22
5691;BME280;2870;42.680;23.364;2022-08-19T07:04:34;95001.56;;;25.85;53.47
5691;BME280;2870;42.680;23.364;2022-08-19T07:07:03;95007.97;;;26.28;54.66
5691;BME280;2870;42.680;23.364;2022-08-19T07:09:33;95011.31;;;26.66;52.13
5691;BME280;2870;42.680;23.364;2022-08-19T07:12:03;95008.78;;;26.54;52.80
5691;BME280;2870;42.680;23.364;2022-08-19T07:14:33;95011.75;;;26.56;50.84
5691;BME280;2870;42.680;23.364;2022-08-19T07:17:05;95014.38;;;26.72;51.68
5691;BME280;2870;42.680;23.364;2022-08-19T07:19:34;95012.06;;;26.90;51.68
5691;BME280;2870;42.680;23.364;2022-08-19T07:22:02;95008.78;;;27.02;50.66
5691;BME280;2870;42.680;23.364;2022-08-19T07:24:31;94998.31;;;27.13;50.06
5691;BME280;2870;42.680;23.364;2022-08-19T07:27:00;94996.53;;;27.02;50.04
5691;BME280;2870;42.680;23.364;2022-08-19T07:29:29;95000.59;;;26.92;49.98
5691;BME280;2870;42.680;23.364;2022-08-19T07:31:56;95005.72;;;26.96;49.56
5691;BME280;2870;42.680;23.364;2022-08-19T07:34:26;95005.41;;;27.10;48.39
5691;BME280;2870;42.680;23.364;2022-08-19T07:36:54;94998.06;;;27.57;48.23
5691;BME280;2870;42.680;23.364;2022-08-19T07:39:23;94995.28;;;27.87;48.82
5691;BME280;2870;42.680;23.364;2022-08-19T07:41:51;94996.81;;;28.20;47.07
5691;BME280;2870;42.680;23.364;2022-08-19T07:44:19;94999.00;;;28.21;47.08
5691;BME280;2870;42.680;23.364;2022-08-19T07:46:49;94989.25;;;28.67;46.90
5691;BME280;2870;42.680;23.364;2022-08-19T07:49:17;94987.72;;;29.32;45.63
5691;BME280;2870;42.680;23.364;2022-08-19T07:51:48;94995.75;;;29.74;42.45
5691;BME280;2870;42.680;23.364;2022-08-19T07:54:16;95007.22;;;29.68;43.57
5691;BME280;2870;42.680;23.364;2022-08-19T07:56:43;95001.03;;;29.88;43.25
5691;BME280;2870;42.680;23.364;2022-08-19T07:59:10;95001.63;;;30.20;41.90
5691;BME280;2870;42.680;23.364;2022-08-19T08:01:37;94993.56;;;30.15;41.86
5691;BME280;2870;42.680;23.364;2022-08-19T08:04:06;95007.50;;;30.73;42.29
5691;BME280;2870;42.680;23.364;2022-08-19T08:06:52;94998.47;;;31.03;39.50
5691;BME280;2870;42.680;23.364;2022-08-19T08:09:41;94998.38;;;31.53;39.41
5691;BME280;2870;42.680;23.364;2022-08-19T08:12:11;95002.13;;;32.35;38.36
5691;BME280;2870;42.680;23.364;2022-08-19T08:14:39;95000.53;;;33.31;37.99
5691;BME280;2870;42.680;23.364;2022-08-19T08:17:08;94994.69;;;33.31;35.56
5691;BME280;2870;42.680;23.364;2022-08-19T08:19:35;94998.09;;;32.85;36.62
5691;BME280;2870;42.680;23.364;2022-08-19T08:22:04;94991.03;;;33.27;36.41
5691;BME280;2870;42.680;23.364;2022-08-19T08:24:32;94987.78;;;32.63;36.16
5691;BME280;2870;42.680;23.364;2022-08-19T08:27:01;94985.00;;;32.84;37.09
5691;BME280;2870;42.680;23.364;2022-08-19T08:29:30;94985.19;;;33.18;36.05
5691;BME280;2870;42.680;23.364;2022-08-19T08:31:58;94981.00;;;33.54;37.27
5691;BME280;2870;42.680;23.364;2022-08-19T08:34:25;94979.28;;;32.92;36.45
5691;BME280;2870;42.680;23.364;2022-08-19T08:36:51;94978.06;;;33.50;35.24
5691;BME280;2870;42.680;23.364;2022-08-19T08:39:20;94973.06;;;33.87;33.94
5691;BME280;2870;42.680;23.364;2022-08-19T08:41:51;94973.81;;;34.31;34.53
5691;BME280;2870;42.680;23.364;2022-08-19T08:44:22;94972.34;;;34.09;33.12
5691;BME280;2870;42.680;23.364;2022-08-19T08:46:53;94970.88;;;34.79;32.88
5691;BME280;2870;42.680;23.364;2022-08-19T08:49:29;94962.91;;;34.11;32.41
5691;BME280;2870;42.680;23.364;2022-08-19T08:52:02;94966.56;;;34.50;31.47
5691;BME280;2870;42.680;23.364;2022-08-19T08:54:35;94961.69;;;35.86;30.24
5691;BME280;2870;42.680;23.364;2022-08-19T08:57:04;94961.19;;;36.55;29.73
5691;BME280;2870;42.680;23.364;2022-08-19T08:59:36;94964.84;;;36.53;28.94
5691;BME280;2870;42.680;23.364;2022-08-19T09:02:06;94957.00;;;36.31;28.29
5691;BME280;2870;42.680;23.364;2022-08-19T09:04:34;94960.22;;;35.93;28.38
5691;BME280;2870;42.680;23.364;2022-08-19T09:07:13;94952.91;;;35.94;28.71
5691;BME280;2870;42.680;23.364;2022-08-19T09:09:47;94954.88;;;36.22;29.43
5691;BME280;2870;42.680;23.364;2022-08-19T09:12:20;94945.97;;;36.40;29.43
5691;BME280;2870;42.680;23.364;2022-08-19T09:14:53;94950.81;;;35.72;29.27
5691;BME280;2870;42.680;23.364;2022-08-19T09:17:24;94940.03;;;35.42;30.46
5691;BME280;2870;42.680;23.364;2022-08-19T09:19:54;94943.75;;;35.32;28.71
5691;BME280;2870;42.680;23.364;2022-08-19T09:22:21;94938.03;;;35.08;27.24
5691;BME280;2870;42.680;23.364;2022-08-19T09:24:50;94934.31;;;35.21;28.53
5691;BME280;2870;42.680;23.364;2022-08-19T09:27:18;94943.09;;;35.11;27.53
5691;BME280;2870;42.680;23.364;2022-08-19T09:29:46;94932.75;;;35.39;27.95
5691;BME280;2870;42.680;23.364;2022-08-19T09:32:14;94932.72;;;35.53;26.26
5691;BME280;2870;42.680;23.364;2022-08-19T09:34:41;94932.09;;;36.39;26.53
5691;BME280;2870;42.680;23.364;2022-08-19T09:37:08;94932.06;;;36.45;25.52
5691;BME280;2870;42.680;23.364;2022-08-19T09:39:35;94909.50;;;35.26;26.27
5691;BME280;2870;42.680;23.364;2022-08-19T09:42:04;94916.81;;;35.25;26.54
5691;BME280;2870;42.680;23.364;2022-08-19T09:44:34;94922.44;;;35.62;26.28
5691;BME280;2870;42.680;23.364;2022-08-19T09:47:01;94922.59;;;36.36;25.38
5691;BME280;2870;42.680;23.364;2022-08-19T09:49:29;94920.88;;;35.77;26.45
5691;BME280;2870;42.680;23.364;2022-08-19T09:51:57;94916.25;;;36.13;25.80
5691;BME280;2870;42.680;23.364;2022-08-19T09:54:23;94925.72;;;36.94;24.76
5691;BME280;2870;42.680;23.364;2022-08-19T09:56:51;94911.28;;;37.39;25.70
5691;BME280;2870;42.680;23.364;2022-08-19T09:59:19;94916.06;;;37.61;25.74
5691;BME280;2870;42.680;23.364;2022-08-19T10:01:46;94908.22;;;36.90;24.50
5691;BME280;2870;42.680;23.364;2022-08-19T10:04:13;94897.69;;;36.47;25.30
5691;BME280;2870;42.680;23.364;2022-08-19T10:06:40;94897.69;;;36.47;24.84
5691;BME280;2870;42.680;23.364;2022-08-19T10:09:08;94899.34;;;36.98;27.25
5691;BME280;2870;42.680;23.364;2022-08-19T10:11:36;94903.88;;;36.10;25.81
5691;BME280;2870;42.680;23.364;2022-08-19T10:14:05;94891.06;;;35.67;25.83
5691;BME280;2870;42.680;23.364;2022-08-19T10:16:36;94891.50;;;36.06;26.60
5691;BME280;2870;42.680;23.364;2022-08-19T10:19:04;94886.25;;;36.23;26.31
5691;BME280;2870;42.680;23.364;2022-08-19T10:21:32;94888.47;;;36.20;25.94
5691;BME280;2870;42.680;23.364;2022-08-19T10:24:02;94885.19;;;36.57;26.17
5691;BME280;2870;42.680;23.364;2022-08-19T10:26:32;94884.41;;;37.24;25.25
5691;BME280;2870;42.680;23.364;2022-08-19T10:29:01;94883.56;;;37.85;24.71
5691;BME280;2870;42.680;23.364;2022-08-19T10:31:32;94870.53;;;36.61;25.11
5691;BME280;2870;42.680;23.364;2022-08-19T10:34:01;94883.69;;;37.24;26.26
5691;BME280;2870;42.680;23.364;2022-08-19T10:36:30;94874.06;;;37.83;24.79
5691;BME280;2870;42.680;23.364;2022-08-19T10:39:00;94873.47;;;37.21;24.48
5691;BME280;2870;42.680;23.364;2022-08-19T10:41:31;94865.66;;;37.03;25.18
5691;BME280;2870;42.680;23.364;2022-08-19T10:44:04;94869.47;;;36.19;25.84
5691;BME280;2870;42.680;23.364;2022-08-19T10:46:34;94865.72;;;36.99;27.24
5691;BME280;2870;42.680;23.364;2022-08-19T10:49:04;94857.28;;;36.70;25.21
5691;BME280;2870;42.680;23.364;2022-08-19T10:51:32;94867.44;;;36.75;26.80
5691;BME280;2870;42.680;23.364;2022-08-19T10:54:17;94856.41;;;37.42;26.51
5691;BME280;2870;42.680;23.364;2022-08-19T10:56:44;94865.81;;;37.48;25.76
5691;BME280;2870;42.680;23.364;2022-08-19T10:59:21;94866.34;;;36.40;26.17
5691;BME280;2870;42.680;23.364;2022-08-19T11:01:49;94856.31;;;35.24;27.33
5691;BME280;2870;42.680;23.364;2022-08-19T11:04:18;94863.81;;;36.03;29.18
5691;BME280;2870;42.680;23.364;2022-08-19T11:06:46;94861.38;;;35.27;27.04
5691;BME280;2870;42.680;23.364;2022-08-19T11:09:14;94849.66;;;35.38;27.36
5691;BME280;2870;42.680;23.364;2022-08-19T11:11:42;94849.81;;;36.16;26.11
5691;BME280;2870;42.680;23.364;2022-08-19T11:14:10;94853.03;;;35.79;26.89
5691;BME280;2870;42.680;23.364;2022-08-19T11:16:38;94862.19;;;36.18;25.97
5691;BME280;2870;42.680;23.364;2022-08-19T11:19:06;94839.72;;;36.00;27.28
5691;BME280;2870;42.680;23.364;2022-08-19T11:21:37;94842.41;;;35.35;26.93
5691;BME280;2870;42.680;23.364;2022-08-19T11:24:06;94849.22;;;36.01;27.38
5691;BME280;2870;42.680;23.364;2022-08-19T11:26:35;94839.66;;;36.08;27.12
5691;BME280;2870;42.680;23.364;2022-08-19T11:29:03;94842.38;;;35.37;26.98
5691;BME280;2870;42.680;23.364;2022-08-19T11:31:33;94837.59;;;34.70;27.95
5691;BME280;2870;42.680;23.364;2022-08-19T11:34:02;94828.69;;;35.13;28.18
5691;BME280;2870;42.680;23.364;2022-08-19T11:36:31;94822.09;;;35.16;27.69
5691;BME280;2870;42.680;23.364;2022-08-19T11:39:00;94821.97;;;35.37;27.48
5691;BME280;2870;42.680;23.364;2022-08-19T11:41:27;94826.31;;;35.44;27.36
5691;BME280;2870;42.680;23.364;2022-08-19T11:43:54;94817.56;;;35.40;28.23
5691;BME280;2870;42.680;23.364;2022-08-19T11:46:23;94813.25;;;35.35;27.25
5691;BME280;2870;42.680;23.364;2022-08-19T11:48:50;94825.28;;;35.82;27.57
5691;BME280;2870;42.680;23.364;2022-08-19T11:51:19;94817.88;;;35.95;27.42
5691;BME280;2870;42.680;23.364;2022-08-19T11:53:47;94813.63;;;35.78;27.02
5691;BME280;2870;42.680;23.364;2022-08-19T11:56:15;94815.38;;;35.44;27.06
5691;BME280;2870;42.680;23.364;2022-08-19T11:58:42;94812.94;;;35.73;27.62
5691;BME280;2870;42.680;23.364;2022-08-19T12:01:09;94813.09;;;35.55;27.32
5691;BME280;2870;42.680;23.364;2022-08-19T12:03:37;94807.34;;;35.47;27.22
5691;BME280;2870;42.680;23.364;2022-08-19T12:06:05;94795.72;;;35.37;26.40
5691;BME280;2870;42.680;23.364;2022-08-19T12:08:32;94801.81;;;34.94;27.79
5691;BME280;2870;42.680;23.364;2022-08-19T12:10:59;94786.41;;;35.14;27.73
5691;BME280;2870;42.680;23.364;2022-08-19T12:13:28;94788.50;;;35.29;27.56
5691;BME280;2870;42.680;23.364;2022-08-19T12:15:57;94793.50;;;35.41;27.47
5691;BME280;2870;42.680;23.364;2022-08-19T12:18:24;94778.59;;;34.75;27.83
5691;BME280;2870;42.680;23.364;2022-08-19T12:20:52;94784.41;;;34.75;28.59
5691;BME280;2870;42.680;23.364;2022-08-19T12:23:20;94768.31;;;34.95;28.27
5691;BME280;2870;42.680;23.364;2022-08-19T12:25:48;94770.22;;;35.33;28.54
5691;BME280;2870;42.680;23.364;2022-08-19T12:28:18;94774.63;;;35.28;27.40
5691;BME280;2870;42.680;23.364;2022-08-19T12:30:47;94765.81;;;35.40;27.19
5691;BME280;2870;42.680;23.364;2022-08-19T12:33:14;94760.81;;;35.22;27.35
5691;BME280;2870;42.680;23.364;2022-08-19T12:35:41;94756.13;;;34.58;27.88
5691;BME280;2870;42.680;23.364;2022-08-19T12:38:09;94758.28;;;34.63;28.16
5691;BME280;2870;42.680;23.364;2022-08-19T12:40:36;94754.38;;;35.12;28.24
5691;BME280;2870;42.680;23.364;2022-08-19T12:43:05;94749.25;;;35.10;28.42
5691;BME280;2870;42.680;23.364;2022-08-19T12:45:32;94751.47;;;35.08;27.93
5691;BME280;2870;42.680;23.364;2022-08-19T12:48:00;94745.91;;;34.54;27.70
5691;BME280;2870;42.680;23.364;2022-08-19T12:50:28;94748.66;;;34.93;28.01
5691;BME280;2870;42.680;23.364;2022-08-19T12:52:56;94744.91;;;35.05;27.62
5691;BME280;2870;42.680;23.364;2022-08-19T12:55:23;94741.84;;;35.29;27.78
5691;BME280;2870;42.680;23.364;2022-08-19T12:57:50;94746.09;;;35.47;28.12
5691;BME280;2870;42.680;23.364;2022-08-19T13:00:19;94754.66;;;35.69;27.37
5691;BME280;2870;42.680;23.364;2022-08-19T13:02:48;94750.50;;;35.44;27.40
5691;BME280;2870;42.680;23.364;2022-08-19T13:05:19;94753.41;;;35.46;26.81
5691;BME280;2870;42.680;23.364;2022-08-19T13:07:48;94744.59;;;35.52;26.95
5691;BME280;2870;42.680;23.364;2022-08-19T13:10:18;94743.38;;;35.16;26.80
5691;BME280;2870;42.680;23.364;2022-08-19T13:12:47;94742.75;;;35.03;27.09
5691;BME280;2870;42.680;23.364;2022-08-19T13:15:15;94733.16;;;35.23;27.45
5691;BME280;2870;42.680;23.364;2022-08-19T13:17:46;94730.38;;;35.03;27.75